This is the latest recevied weather packets stored in our database for station/object KF7IOR. If no packets are shown the sender has not sent any weather packets the latest 10 day(s).
| Time | Temp. | Humidity | Pressure | Rain* | Wind** | Luminosity | Snow |
|---|---|---|---|---|---|---|---|
| 1778094949 | 16.11° C | 74% | 1020.9 hPa | 0 mm | - | 144 W/m² | - |
| 1778094334 | 16.11° C | 75% | 1020.8 hPa | 0 mm | - | 169 W/m² | - |
| 1778088935 | 14.44° C | 77% | 1020.6 hPa | 0 mm | - | 123 W/m² | - |
| 1778088336 | 15° C | 76% | 1020.6 hPa | 0 mm | - | 146 W/m² | - |
| 1778086537 | 14.44° C | 78% | 1020.4 hPa | 0 mm | - | 220 W/m² | - |
| 1778085335 | 13.89° C | 78% | 1020.6 hPa | 0 mm | - | 127 W/m² | - |
| 1778083246 | 13.89° C | 79% | 1020.4 hPa | 0 mm | - | 104 W/m² | - |
| 1778082636 | 13.89° C | 80% | 1020.1 hPa | 0 mm | - | 139 W/m² | - |
| 1778082343 | 13.89° C | 78% | 1019.9 hPa | 0 mm | - | 134 W/m² | - |
| 1778080547 | 13.33° C | 81% | 1020.5 hPa | 0 mm | - | 53 W/m² | - |
| 1778079647 | 13.33° C | 81% | 1020.6 hPa | 0 mm | - | 39 W/m² | - |
| 1778078740 | 13.33° C | 81% | 1020.3 hPa | 0 mm | - | 42 W/m² | - |
| 1778077236 | 13.33° C | 81% | 1020 hPa | 0 mm | - | 25 W/m² | - |
| 1778076050 | 13.33° C | 81% | 1019.7 hPa | 0 mm | - | 23 W/m² | - |
| 1778074241 | 13.33° C | 82% | 1019.6 hPa | 0 mm | - | 12 W/m² | - |
| 1778073364 | 13.33° C | 82% | 1019.4 hPa | 0 mm | - | 9 W/m² | - |
| 1778073035 | 13.33° C | 82% | 1019.2 hPa | 0 mm | - | 7 W/m² | - |
| 1778072735 | 13.33° C | 82% | 1019.1 hPa | 0 mm | - | 0 W/m² | - |
| 1778070648 | 13.33° C | 81% | 1018.9 hPa | 0 mm | - | 0 W/m² | - |
| 1778063735 | 13.89° C | 79% | 1017.9 hPa | 0 mm | - | 0 W/m² | - |
| 1778063135 | 13.89° C | 79% | 1018 hPa | 0 mm | - | 0 W/m² | - |
| 1778062236 | 13.89° C | 79% | 1017.6 hPa | 0 mm | - | 0 W/m² | - |
| 1778059852 | 13.89° C | 79% | 1017.3 hPa | 0 mm | - | 0 W/m² | - |
| 1778059237 | 13.89° C | 79% | 1017.2 hPa | 0 mm | - | 0 W/m² | - |
| 1778056536 | 14.44° C | 78% | 1017.3 hPa | 0 mm | - | 0 W/m² | - |
* Rain latest hour (hover to see other rain measurements)
** Current wind speed in m/s (hover to see current wind gust speed)